Terminal Aerodrome Forecast
Issued by NWS

Home | Current Version | Previous Version | Text Only | Print | Product List | Glossary On
Versions: 1 2 3 4 5 6 7 8 9 10 11 12 13 14 15
000
FTAK31 PAFA 251132
TAFAGA
TAF
PAGA 251132Z 2512/2612 12007KT P6SM -SN SCT023 BKN030 OVC040
      TEMPO 2512/2514 3SM -SHSN BR BKN023 OVC030
     FM260000 14011KT P6SM VCSH SCT025 BKN050 BKN100
     FM260500 15005KT 5SM -SN BR BKN025 OVC050=

USA.gov is the U.S. government's official web portal to all federal, state and local government web resources and services.